Terminal Aerodrome Forecast
Issued by NWS

Home | Current Version | Previous Version | Text Only | Print | Product List | Glossary On
Versions: 1 2 3 4 5 6 7 8 9 10 11 12 13 14 15 16 17
000
FTUS41 KPBZ 211800 AAA
TAFBVI
TAF AMD
KBVI 211849Z 2119/2218 24010G18KT P6SM VCSH SCT035 BKN040
     FM212200 28015G25KT P6SM BKN040
     FM220500 31010G15KT P6SM BKN018 BKN025=

USA.gov is the U.S. government's official web portal to all federal, state and local government web resources and services.